Scf Alpine — A8XQ2 — position and weather

sailwx.info

Track history (hours):
 
Tides and Currents Weather Stations Pressure Air Temp Water Temp Dewpoint Dewpoint Depression Visibility Wind Speed Wind Dir Waves Ship Positions

Scf Alpine

Last reported at 2016-May-09 04:24 UTC. Time now 2016-May-26 02:47 UTC.
Position N 01°12' E 103°33'.
Warning: this ship's position is 16 days out of date.

Length 228 m; draft 8 m.

Type: Ship (hazmat cat A). MMSI: 636014957.

Date/timePositionNaut miles runAvg speedWind from/ knotsBaromVisibWave heightAir tempDewpointWater temp
2016-May-09 04:24N 01°12' E 103°33'910.4
2016-May-09 03:33N 01°12' E 103°41'0 0.1
2016-May-09 02:33N 01°12' E 103°41'0 0.1
2016-May-09 01:33N 01°12' E 103°42'0 0.3
2016-May-09 00:33N 01°13' E 103°41'2 1.6
2016-May-08 23:25N 01°14' E 103°42'0 0.0
2016-May-08 22:31N 01°14' E 103°42'0 0.0
2016-May-08 21:31N 01°14' E 103°42'0 0.0
2016-May-08 20:25N 01°14' E 103°42'0 0.0
2016-May-08 19:28N 01°14' E 103°42'0 0.0
2016-May-08 18:31N 01°14' E 103°42'0 0.0
2016-May-08 17:25N 01°14' E 103°42'0 0.0
2016-May-08 16:22N 01°14' E 103°42'0 0.0
2016-May-08 15:31N 01°14' E 103°42'0 0.0
2016-May-08 14:31N 01°14' E 103°42'0 0.0
2016-May-08 13:31N 01°14' E 103°42'0 0.0
2016-May-08 12:31N 01°14' E 103°42'0 0.0
2016-May-08 11:22N 01°14' E 103°42'0 0.0
2016-May-08 10:25N 01°14' E 103°42'0 0.0
2016-May-08 09:31N 01°14' E 103°42'0 0.0
2016-May-08 08:28N 01°14' E 103°42'0 0.0
2016-May-08 07:28N 01°14' E 103°42'0 0.1
2016-May-08 06:28N 01°14' E 103°41'0 0.0
2016-May-08 05:31N 01°14' E 103°41'0 0.1
2016-May-08 04:25N 01°14' E 103°42'0 0.0
2016-May-08 03:25N 01°14' E 103°42'0 0.0
2016-May-08 02:25N 01°14' E 103°42'0 0.1
2016-May-08 01:28N 01°14' E 103°41'0 0.0
2016-May-08 00:31N 01°14' E 103°41'0 0.1
2016-May-07 23:28N 01°14' E 103°42'0 0.0
2016-May-07 22:25N 01°14' E 103°42'0 0.0
2016-May-07 21:31N 01°14' E 103°42'0 0.0
2016-May-07 20:25N 01°14' E 103°42'0 0.0
2016-May-07 19:25N 01°14' E 103°42'0 0.0
2016-May-07 18:31N 01°14' E 103°42'0 0.0
2016-May-07 15:25N 01°14' E 103°42'0 0.0
2016-May-07 13:28N 01°14' E 103°42'0 0.1
2016-May-07 12:31N 01°14' E 103°41'0 0.0
2016-May-07 08:31N 01°14' E 103°42'0 0.0
2016-May-07 07:28N 01°14' E 103°42'1 1.0
2016-May-07 06:34N 01°14' E 103°41'2 1.7
2016-May-07 05:20N 01°13' E 103°39'0 0.1
2016-May-07 04:27N 01°13' E 103°39'0 0.1
2016-May-07 03:27N 01°13' E 103°39'1 0.6
2016-May-07 02:33N 01°13' E 103°39'7 7.4
2016-May-07 01:33N 01°16' E 103°33'5 0.2
2016-May-05 23:20N 01°21' E 103°33'6 7.3
2016-May-05 22:33N 01°15' E 103°32'5 4.1
2016-May-05 21:22N 01°15' E 103°27'4 3.9
2016-May-05 20:14N 01°13' E 103°32'5 7.9
2016-May-05 19:33N 01°12' E 103°37'7 7.3
2016-May-05 18:33N 01°15' E 103°44'1 0.1
2016-May-05 02:15N 01°14' E 103°44'0 0.0
2016-May-05 01:33N 01°14' E 103°44'0 0.0
2016-May-05 00:18N 01°14' E 103°44'0 0.0
2016-May-04 22:30N 01°14' E 103°44'0 0.0
2016-May-04 21:15N 01°14' E 103°44'0 0.0
2016-May-04 20:27N 01°14' E 103°44'0 0.0
2016-May-04 19:24N 01°14' E 103°44'0 0.0
2016-May-04 18:27N 01°14' E 103°44'0 0.0
2016-May-04 17:18N 01°14' E 103°44'0 0.0
2016-May-04 16:18N 01°14' E 103°44'0 0.0
2016-May-04 15:30N 01°14' E 103°44'0 0.0
2016-May-04 14:21N 01°14' E 103°44'0 0.0
2016-May-04 13:21N 01°14' E 103°44'0 0.0
2016-May-04 12:18N 01°14' E 103°44'0 0.0
2016-May-04 11:30N 01°14' E 103°44'0 0.0
2016-May-04 08:27N 01°14' E 103°44'0 0.1
2016-May-04 05:33N 01°15' E 103°44'5 4.9
2016-May-04 04:33N 01°12' E 103°40'3 2.8
2016-May-04 03:33N 01°10' E 103°43'0 0.0
2016-May-04 02:21N 01°10' E 103°43'0 0.1
2016-May-04 01:33N 01°10' E 103°43'0 0.1
2016-May-04 00:30N 01°10' E 103°42'0 0.0
2016-May-03 23:30N 01°10' E 103°42'0 0.0
2016-May-03 22:33N 01°10' E 103°42'0 0.0
2016-May-03 21:24N 01°10' E 103°42'0 0.0
2016-May-03 20:30N 01°10' E 103°42'0 0.0
2016-May-03 19:21N 01°10' E 103°42'0 0.1
2016-May-03 18:33N 01°10' E 103°43'0 0.0
2016-May-03 17:33N 01°10' E 103°43'0 0.1
2016-May-03 16:33N 01°10' E 103°43'0 0.1
2016-May-03 15:33N 01°10' E 103°43'0 0.2
2016-May-03 14:33N 01°10' E 103°43'0 0.1
2016-May-03 13:30N 01°10' E 103°43'0 0.1
2016-May-03 12:30N 01°10' E 103°42'0 0.0
2016-May-03 11:27N 01°10' E 103°42'0 0.0
2016-May-03 10:12N 01°10' E 103°42'0 0.1
2016-May-03 09:33N 01°10' E 103°42'0 0.1
2016-May-03 08:16N 01°10' E 103°43'0 0.6
2016-May-03 07:33N 01°11' E 103°42'4 3.8
2016-May-03 06:33N 01°14' E 103°41'0 0.1
2016-May-03 05:30N 01°14' E 103°42'0 0.0
2016-May-03 04:27N 01°14' E 103°42'0 0.0
2016-May-03 03:30N 01°14' E 103°42'0 0.0
2016-May-03 02:21N 01°14' E 103°42'0 0.1
2016-May-03 01:33N 01°14' E 103°41'0 0.0
2016-May-03 00:33N 01°14' E 103°41'0 0.1
2016-May-02 23:24N 01°14' E 103°42'0 0.0
2016-May-02 21:24N 01°14' E 103°42'0 0.0
2016-May-02 20:33N 01°14' E 103°42'0 0.1
2016-May-02 19:24N 01°14' E 103°41'0 0.1
2016-May-02 18:33N 01°14' E 103°42'0 0.0
2016-May-02 17:12N 01°14' E 103°42'0 0.0
2016-May-02 16:15N 01°14' E 103°42'0 0.0
2016-May-02 15:24N 01°14' E 103°42'0 0.0
2016-May-02 13:15N 01°14' E 103°42'0 0.1
2016-May-02 12:30N 01°14' E 103°41'0 0.5
2016-May-02 11:34N 01°14' E 103°41'2 1.8
2016-May-02 10:34N 01°15' E 103°43'5 5.5
2016-May-02 09:33N 01°14' E 103°48'0 0.1
2016-May-02 08:31N 01°14' E 103°48'0 0.1
2016-May-02 07:31N 01°14' E 103°48'0 0.1
2016-May-02 06:31N 01°14' E 103°48'0 0.1
2016-May-02 05:28N 01°14' E 103°48'0 0.0
2016-May-02 04:28N 01°14' E 103°48'0 0.0
2016-May-02 03:19N 01°14' E 103°48'0 0.0
2016-May-02 02:31N 01°14' E 103°48'0 0.0
2016-May-02 01:31N 01°14' E 103°48'0 0.1
2016-May-02 00:25N 01°14' E 103°48'0 0.1
2016-May-01 23:31N 01°14' E 103°48'0 0.1
2016-May-01 22:31N 01°14' E 103°48'0 0.1
2016-May-01 21:28N 01°14' E 103°48'0 0.1
2016-May-01 20:31N 01°14' E 103°48'0 0.1
2016-May-01 19:31N 01°14' E 103°48'0 0.1
2016-May-01 18:31N 01°14' E 103°48'0 0.1
2016-May-01 17:31N 01°14' E 103°48'0 0.1
2016-May-01 16:31N 01°14' E 103°48'0 0.1
2016-May-01 15:28N 01°14' E 103°48'0 0.1
2016-May-01 14:31N 01°14' E 103°48'0 0.0
2016-May-01 13:28N 01°14' E 103°48'0 0.0
2016-May-01 12:31N 01°14' E 103°48'0 0.0
2016-May-01 11:31N 01°14' E 103°48'0 0.1
2016-May-01 10:31N 01°14' E 103°48'0 0.0
2016-May-01 09:33N 01°14' E 103°48'0 0.0
2016-May-01 08:33N 01°14' E 103°48'0 0.1
2016-May-01 07:33N 01°14' E 103°48'0 0.2
2016-May-01 06:34N 01°14' E 103°48'0 0.0
2016-May-01 05:33N 01°14' E 103°48'0 0.0
2016-May-01 04:33N 01°14' E 103°48'3 2.8
2016-May-01 03:33N 01°12' E 103°51'10 9.8
2016-May-01 02:32N 01°16' E 104°00'7 7.1
2016-May-01 01:32N 01°16' E 104°07'  
Track history (hours):
 
Tides and Currents Weather Stations Pressure Air Temp Water Temp Dewpoint Dewpoint Depression Visibility Wind Speed Wind Dir Waves Ship Positions

Scf Alpine

Last reported at 2016-May-09 04:24 UTC. Time now 2016-May-26 02:47 UTC.
Position N 01°12' E 103°33'.
Warning: this ship's position is 16 days out of date.

Length 228 m; draft 8 m.

Type: Ship (hazmat cat A). MMSI: 636014957.

Date/timePositionNaut miles runAvg speedWind from/ knotsBaromVisibWave heightAir tempDewpointWater temp
2016-May-09 04:24N 01°12' E 103°33'910.4
2016-May-09 03:33N 01°12' E 103°41'0 0.1
2016-May-09 02:33N 01°12' E 103°41'0 0.1
2016-May-09 01:33N 01°12' E 103°42'0 0.3
2016-May-09 00:33N 01°13' E 103°41'2 1.6
2016-May-08 23:25N 01°14' E 103°42'0 0.0
2016-May-08 22:31N 01°14' E 103°42'0 0.0
2016-May-08 21:31N 01°14' E 103°42'0 0.0
2016-May-08 20:25N 01°14' E 103°42'0 0.0
2016-May-08 19:28N 01°14' E 103°42'0 0.0
2016-May-08 18:31N 01°14' E 103°42'0 0.0
2016-May-08 17:25N 01°14' E 103°42'0 0.0
2016-May-08 16:22N 01°14' E 103°42'0 0.0
2016-May-08 15:31N 01°14' E 103°42'0 0.0
2016-May-08 14:31N 01°14' E 103°42'0 0.0
2016-May-08 13:31N 01°14' E 103°42'0 0.0
2016-May-08 12:31N 01°14' E 103°42'0 0.0
2016-May-08 11:22N 01°14' E 103°42'0 0.0
2016-May-08 10:25N 01°14' E 103°42'0 0.0
2016-May-08 09:31N 01°14' E 103°42'0 0.0
2016-May-08 08:28N 01°14' E 103°42'0 0.0
2016-May-08 07:28N 01°14' E 103°42'0 0.1
2016-May-08 06:28N 01°14' E 103°41'0 0.0
2016-May-08 05:31N 01°14' E 103°41'0 0.1
2016-May-08 04:25N 01°14' E 103°42'0 0.0
2016-May-08 03:25N 01°14' E 103°42'0 0.0
2016-May-08 02:25N 01°14' E 103°42'0 0.1
2016-May-08 01:28N 01°14' E 103°41'0 0.0
2016-May-08 00:31N 01°14' E 103°41'0 0.1
2016-May-07 23:28N 01°14' E 103°42'0 0.0
2016-May-07 22:25N 01°14' E 103°42'0 0.0
2016-May-07 21:31N 01°14' E 103°42'0 0.0
2016-May-07 20:25N 01°14' E 103°42'0 0.0
2016-May-07 19:25N 01°14' E 103°42'0 0.0
2016-May-07 18:31N 01°14' E 103°42'0 0.0
2016-May-07 15:25N 01°14' E 103°42'0 0.0
2016-May-07 13:28N 01°14' E 103°42'0 0.1
2016-May-07 12:31N 01°14' E 103°41'0 0.0
2016-May-07 08:31N 01°14' E 103°42'0 0.0
2016-May-07 07:28N 01°14' E 103°42'1 1.0
2016-May-07 06:34N 01°14' E 103°41'2 1.7
2016-May-07 05:20N 01°13' E 103°39'0 0.1
2016-May-07 04:27N 01°13' E 103°39'0 0.1
2016-May-07 03:27N 01°13' E 103°39'1 0.6
2016-May-07 02:33N 01°13' E 103°39'7 7.4
2016-May-07 01:33N 01°16' E 103°33'5 0.2
2016-May-05 23:20N 01°21' E 103°33'6 7.3
2016-May-05 22:33N 01°15' E 103°32'5 4.1
2016-May-05 21:22N 01°15' E 103°27'4 3.9
2016-May-05 20:14N 01°13' E 103°32'5 7.9
2016-May-05 19:33N 01°12' E 103°37'7 7.3
2016-May-05 18:33N 01°15' E 103°44'1 0.1
2016-May-05 02:15N 01°14' E 103°44'0 0.0
2016-May-05 01:33N 01°14' E 103°44'0 0.0
2016-May-05 00:18N 01°14' E 103°44'0 0.0
2016-May-04 22:30N 01°14' E 103°44'0 0.0
2016-May-04 21:15N 01°14' E 103°44'0 0.0
2016-May-04 20:27N 01°14' E 103°44'0 0.0
2016-May-04 19:24N 01°14' E 103°44'0 0.0
2016-May-04 18:27N 01°14' E 103°44'0 0.0
2016-May-04 17:18N 01°14' E 103°44'0 0.0
2016-May-04 16:18N 01°14' E 103°44'0 0.0
2016-May-04 15:30N 01°14' E 103°44'0 0.0
2016-May-04 14:21N 01°14' E 103°44'0 0.0
2016-May-04 13:21N 01°14' E 103°44'0 0.0
2016-May-04 12:18N 01°14' E 103°44'0 0.0
2016-May-04 11:30N 01°14' E 103°44'0 0.0
2016-May-04 08:27N 01°14' E 103°44'0 0.1
2016-May-04 05:33N 01°15' E 103°44'5 4.9
2016-May-04 04:33N 01°12' E 103°40'3 2.8
2016-May-04 03:33N 01°10' E 103°43'0 0.0
2016-May-04 02:21N 01°10' E 103°43'0 0.1
2016-May-04 01:33N 01°10' E 103°43'0 0.1
2016-May-04 00:30N 01°10' E 103°42'0 0.0
2016-May-03 23:30N 01°10' E 103°42'0 0.0
2016-May-03 22:33N 01°10' E 103°42'0 0.0
2016-May-03 21:24N 01°10' E 103°42'0 0.0
2016-May-03 20:30N 01°10' E 103°42'0 0.0
2016-May-03 19:21N 01°10' E 103°42'0 0.1
2016-May-03 18:33N 01°10' E 103°43'0 0.0
2016-May-03 17:33N 01°10' E 103°43'0 0.1
2016-May-03 16:33N 01°10' E 103°43'0 0.1
2016-May-03 15:33N 01°10' E 103°43'0 0.2
2016-May-03 14:33N 01°10' E 103°43'0 0.1
2016-May-03 13:30N 01°10' E 103°43'0 0.1
2016-May-03 12:30N 01°10' E 103°42'0 0.0
2016-May-03 11:27N 01°10' E 103°42'0 0.0
2016-May-03 10:12N 01°10' E 103°42'0 0.1
2016-May-03 09:33N 01°10' E 103°42'0 0.1
2016-May-03 08:16N 01°10' E 103°43'0 0.6
2016-May-03 07:33N 01°11' E 103°42'4 3.8
2016-May-03 06:33N 01°14' E 103°41'0 0.1
2016-May-03 05:30N 01°14' E 103°42'0 0.0
2016-May-03 04:27N 01°14' E 103°42'0 0.0
2016-May-03 03:30N 01°14' E 103°42'0 0.0
2016-May-03 02:21N 01°14' E 103°42'0 0.1
2016-May-03 01:33N 01°14' E 103°41'0 0.0
2016-May-03 00:33N 01°14' E 103°41'0 0.1
2016-May-02 23:24N 01°14' E 103°42'0 0.0
2016-May-02 21:24N 01°14' E 103°42'0 0.0
2016-May-02 20:33N 01°14' E 103°42'0 0.1
2016-May-02 19:24N 01°14' E 103°41'0 0.1
2016-May-02 18:33N 01°14' E 103°42'0 0.0
2016-May-02 17:12N 01°14' E 103°42'0 0.0
2016-May-02 16:15N 01°14' E 103°42'0 0.0
2016-May-02 15:24N 01°14' E 103°42'0 0.0
2016-May-02 13:15N 01°14' E 103°42'0 0.1
2016-May-02 12:30N 01°14' E 103°41'0 0.5
2016-May-02 11:34N 01°14' E 103°41'2 1.8
2016-May-02 10:34N 01°15' E 103°43'5 5.5
2016-May-02 09:33N 01°14' E 103°48'0 0.1
2016-May-02 08:31N 01°14' E 103°48'0 0.1
2016-May-02 07:31N 01°14' E 103°48'0 0.1
2016-May-02 06:31N 01°14' E 103°48'0 0.1
2016-May-02 05:28N 01°14' E 103°48'0 0.0
2016-May-02 04:28N 01°14' E 103°48'0 0.0
2016-May-02 03:19N 01°14' E 103°48'0 0.0
2016-May-02 02:31N 01°14' E 103°48'0 0.0
2016-May-02 01:31N 01°14' E 103°48'0 0.1
2016-May-02 00:25N 01°14' E 103°48'0 0.1
2016-May-01 23:31N 01°14' E 103°48'0 0.1
2016-May-01 22:31N 01°14' E 103°48'0 0.1
2016-May-01 21:28N 01°14' E 103°48'0 0.1
2016-May-01 20:31N 01°14' E 103°48'0 0.1
2016-May-01 19:31N 01°14' E 103°48'0 0.1
2016-May-01 18:31N 01°14' E 103°48'0 0.1
2016-May-01 17:31N 01°14' E 103°48'0 0.1
2016-May-01 16:31N 01°14' E 103°48'0 0.1
2016-May-01 15:28N 01°14' E 103°48'0 0.1
2016-May-01 14:31N 01°14' E 103°48'0 0.0
2016-May-01 13:28N 01°14' E 103°48'0 0.0
2016-May-01 12:31N 01°14' E 103°48'0 0.0
2016-May-01 11:31N 01°14' E 103°48'0 0.1
2016-May-01 10:31N 01°14' E 103°48'0 0.0
2016-May-01 09:33N 01°14' E 103°48'0 0.0
2016-May-01 08:33N 01°14' E 103°48'0 0.1
2016-May-01 07:33N 01°14' E 103°48'0 0.2
2016-May-01 06:34N 01°14' E 103°48'0 0.0
2016-May-01 05:33N 01°14' E 103°48'0 0.0
2016-May-01 04:33N 01°14' E 103°48'3 2.8
2016-May-01 03:33N 01°12' E 103°51'10 9.8
2016-May-01 02:32N 01°16' E 104°00'7 7.1
2016-May-01 01:32N 01°16' E 104°07'  

Dump ship's entire track history